Hauptseite
METAR-TAF:

METAR-TAF

Flughäfen :

Flughafen Pantelleria

Pantelleria, Italien

Breite: 36-49N, Länge: 011-58E, Höhe: 191 m

Beobachtung

Neuester Wetterbericht von vor 3 Stunden und 39 Minuten, um 17:55 UTC
Wind 4 kt aus Süd
Temperatur 15°C
Luftfeuchtigkeit 88%
Luftdruck 1010 hPa
Sichtweite 10 km oder mehr
Leicht bewölkt in der Höhe von 2000 ft

METAR: LICG 181755Z 18004KT 9999 FEW020 15/13 Q1010 RMK FEW VIS MIN 9999 WIND

Zeit: 22:34 (21:34 UTC)

Prognose

Neuester Wetterbericht von vor 4 Stunden und 34 Minuten, um 17:00 UTC
Gültige Prognose vom 18 um 18 UTC bis 19 um 03 UTC
Wind 6 kt aus West/Nordwest
Sichtweite 10 km oder mehr
Aufgelockert bewölkt in der Höhe von 2000 ft

TAF: LICG 181700Z 1818/1903 29006KT 9999 SCT020

Wetterbeobachtungen und Prognosen von mehr als 4000 Flughäfen (METAR und TAF Bericht).

Die verfügbaren Stationen werden durch gelbe und rote Markierungen auf der Karte dargestellt.

Führen Sie die Maus auf sie, um den Namen der Station zu sehen.

Darauf klicken, um die Beobachtung von Wetterbeobachtungen und Prognosen zu sehen.

Um die Karte zu ändern : klicken Sie auf den grünen Tasten mit einem schwarzen Kreuz Zum Vergrößern, auf den grünen Button mit einem Gedankenstrich zu verkleinern, oder auf die grünen Pfeile für benachbarte Karten.


METAR-TAF: